Time;durP1;ratioP1;P1;durP2;ratioP2;P2;SDS_P1;SDS_P2;PMS_P1;PMS_P2;Temp;Humidity;BMP_temperature;BMP_pressure;BME280_temperature;BME280_humidity;BME280_pressure;Samples;Min_cycle;Max_cycle;Signal;HPM_P1;HPM_P2
2021/07/31 00:00:12;;;;;;;6.90;1.60;;;15.70;99.90;;;;;;5065526;28;20512;-87
2021/07/31 00:02:38;;;;;;;5.07;1.30;;;15.80;99.90;;;;;;5060913;28;20047;-84
2021/07/31 00:05:07;;;;;;;9.75;1.67;;;15.80;99.90;;;;;;5065850;28;20436;-87
2021/07/31 00:07:34;;;;;;;7.03;1.52;;;15.80;99.90;;;;;;5064925;28;20094;-85
2021/07/31 00:09:59;;;;;;;11.40;2.03;;;15.80;99.90;;;;;;5063901;28;20498;-88
2021/07/31 00:12:25;;;;;;;6.68;2.08;;;15.80;99.90;;;;;;5066039;28;20036;-89
2021/07/31 00:14:51;;;;;;;6.35;1.80;;;15.80;99.90;;;;;;5065477;28;20036;-87
2021/07/31 00:17:16;;;;;;;4.63;1.40;;;15.80;99.90;;;;;;5065008;28;20055;-88
2021/07/31 00:19:42;;;;;;;8.05;1.30;;;15.80;99.90;;;;;;5064000;28;20044;-86
2021/07/31 00:22:08;;;;;;;7.10;1.25;;;15.80;99.90;;;;;;5063476;28;20037;-86
2021/07/31 00:24:34;;;;;;;4.85;1.55;;;15.80;99.90;;;;;;5064434;28;21063;-83
2021/07/31 00:26:59;;;;;;;8.98;2.30;;;15.80;99.90;;;;;;5064084;28;20048;-81
2021/07/31 00:29:25;;;;;;;5.13;1.73;;;15.80;99.90;;;;;;5064103;28;20119;-84
2021/07/31 00:31:51;;;;;;;6.05;1.70;;;15.80;99.90;;;;;;5064431;28;20098;-83
2021/07/31 00:34:16;;;;;;;11.27;2.20;;;15.80;99.90;;;;;;5063230;28;20045;-85
2021/07/31 00:36:42;;;;;;;7.63;2.15;;;15.80;99.90;;;;;;5065389;28;20064;-84
2021/07/31 00:39:08;;;;;;;7.20;2.05;;;15.80;99.90;;;;;;5064692;28;20051;-81
2021/07/31 00:41:33;;;;;;;6.45;2.40;;;15.80;99.90;;;;;;5064224;28;20032;-82
2021/07/31 00:43:59;;;;;;;8.85;2.47;;;15.80;99.90;;;;;;5065354;28;20036;-86
2021/07/31 00:46:25;;;;;;;4.65;2.00;;;15.80;99.90;;;;;;5064579;28;20033;-81
2021/07/31 00:48:52;;;;;;;7.68;2.05;;;15.80;99.90;;;;;;5065751;28;20064;-86
2021/07/31 00:51:19;;;;;;;10.65;2.83;;;15.80;99.90;;;;;;5063291;28;20493;-84
2021/07/31 00:53:45;;;;;;;5.22;1.77;;;15.80;99.90;;;;;;5064099;28;20040;-82
2021/07/31 00:56:12;;;;;;;7.80;3.10;;;15.80;99.90;;;;;;5064439;28;20785;-84
2021/07/31 00:58:38;;;;;;;7.88;2.80;;;15.80;99.90;;;;;;5063433;28;20060;-80
2021/07/31 01:01:04;;;;;;;13.05;3.45;;;15.80;99.90;;;;;;5062368;28;20183;-80
2021/07/31 01:03:29;;;;;;;9.90;2.80;;;15.70;99.90;;;;;;5062999;28;20040;-83
2021/07/31 01:05:55;;;;;;;9.20;3.22;;;15.70;99.90;;;;;;5064165;28;20036;-81
2021/07/31 01:08:22;;;;;;;11.00;2.95;;;15.70;99.90;;;;;;5063924;28;20039;-82
2021/07/31 01:10:48;;;;;;;9.32;2.65;;;15.70;99.90;;;;;;5062250;28;20052;-83
2021/07/31 01:13:14;;;;;;;9.52;2.97;;;15.70;99.90;;;;;;5062373;28;20493;-80
2021/07/31 01:16:00;;;;;;;9.13;3.20;;;15.60;99.90;;;;;;5064322;28;20530;-81
2021/07/31 01:18:27;;;;;;;10.57;3.35;;;15.60;99.90;;;;;;5063060;28;20040;-81
2021/07/31 01:20:52;;;;;;;13.18;4.00;;;15.60;99.90;;;;;;5064853;28;20039;-84
2021/07/31 01:23:18;;;;;;;11.13;4.07;;;15.60;99.90;;;;;;5063098;28;20048;-80
2021/07/31 01:25:43;;;;;;;12.02;3.67;;;15.50;99.90;;;;;;5063563;28;20496;-80
2021/07/31 01:28:10;;;;;;;8.38;3.30;;;15.50;99.90;;;;;;5062304;28;20040;-83
2021/07/31 01:30:38;;;;;;;14.10;4.28;;;15.50;99.90;;;;;;5063117;28;20122;-80
2021/07/31 01:33:03;;;;;;;10.88;3.78;;;15.50;99.90;;;;;;5061421;28;20050;-80
2021/07/31 01:35:29;;;;;;;9.45;4.45;;;15.50;99.90;;;;;;5063772;28;20125;-80
2021/07/31 01:37:55;;;;;;;11.10;4.03;;;15.50;99.90;;;;;;5062020;28;20041;-83
2021/07/31 01:40:20;;;;;;;9.75;4.32;;;15.50;99.90;;;;;;5063365;28;20036;-83
2021/07/31 01:42:48;;;;;;;13.18;4.00;;;15.50;99.90;;;;;;5062077;28;20070;-84
2021/07/31 01:45:14;;;;;;;9.68;3.88;;;15.50;99.90;;;;;;5064451;28;20041;-82
2021/07/31 01:47:41;;;;;;;9.07;3.53;;;15.50;99.90;;;;;;5063739;28;20040;-83
2021/07/31 01:50:07;;;;;;;9.23;3.97;;;15.50;99.90;;;;;;5064529;28;20128;-83
2021/07/31 01:52:32;;;;;;;12.43;4.05;;;15.50;99.90;;;;;;5062247;28;20189;-83
2021/07/31 01:54:58;;;;;;;11.13;4.43;;;15.50;99.90;;;;;;5067944;28;20131;-82
2021/07/31 01:57:24;;;;;;;10.30;4.80;;;15.50;99.90;;;;;;5065707;28;20102;-80
2021/07/31 01:59:49;;;;;;;9.55;4.13;;;15.40;99.90;;;;;;5065340;28;20441;-82
2021/07/31 02:02:15;;;;;;;11.68;4.82;;;15.40;99.90;;;;;;5065035;28;20048;-82
2021/07/31 02:04:41;;;;;;;7.28;4.03;;;15.40;99.90;;;;;;5066499;28;20032;-83
2021/07/31 02:07:10;;;;;;;8.45;4.30;;;15.30;99.90;;;;;;5066750;28;20036;-82
2021/07/31 02:09:36;;;;;;;12.13;4.70;;;15.30;99.90;;;;;;5068368;28;20052;-79
2021/07/31 02:12:02;;;;;;;11.50;4.82;;;15.50;99.90;;;;;;5067179;28;20483;-80
2021/07/31 02:14:29;;;;;;;11.45;5.00;;;15.30;99.90;;;;;;5066695;28;20040;-81
2021/07/31 02:16:55;;;;;;;11.23;5.32;;;15.30;99.90;;;;;;5065320;28;20119;-81
2021/07/31 02:19:21;;;;;;;14.48;5.47;;;15.30;99.90;;;;;;5065788;28;20131;-82
2021/07/31 02:21:46;;;;;;;13.80;5.28;;;15.20;99.90;;;;;;5065678;28;20036;-82
2021/07/31 02:24:12;;;;;;;13.32;5.05;;;15.30;99.90;;;;;;5067606;28;20033;-81
2021/07/31 02:26:38;;;;;;;12.77;5.75;;;15.20;99.90;;;;;;5067865;28;20064;-81
2021/07/31 02:29:03;;;;;;;12.45;5.32;;;15.20;99.90;;;;;;5069875;28;20036;-82
2021/07/31 02:31:30;;;;;;;21.77;6.65;;;15.20;99.90;;;;;;5069571;28;20029;-80
2021/07/31 02:33:55;;;;;;;16.65;5.35;;;15.20;99.90;;;;;;5067230;28;20048;-82
2021/07/31 02:36:21;;;;;;;11.95;6.35;;;15.20;99.90;;;;;;5069461;28;20090;-82
2021/07/31 02:38:46;;;;;;;12.60;5.53;;;15.30;99.90;;;;;;5069809;28;20696;-83
2021/07/31 02:41:12;;;;;;;15.88;6.53;;;15.20;99.90;;;;;;5066660;28;20106;-84
2021/07/31 02:43:38;;;;;;;11.90;6.13;;;15.20;99.90;;;;;;5066402;28;20053;-85
2021/07/31 02:46:08;;;;;;;11.68;5.88;;;15.20;99.90;;;;;;5067778;28;20064;-84
2021/07/31 02:48:35;;;;;;;16.73;6.80;;;15.20;99.90;;;;;;5071231;28;20040;-85
2021/07/31 02:51:06;;;;;;;13.68;6.13;;;15.30;99.90;;;;;;5069109;28;20127;-81
2021/07/31 02:53:32;;;;;;;11.18;6.20;;;15.30;99.90;;;;;;5069943;28;20520;-80
2021/07/31 02:55:57;;;;;;;9.45;5.57;;;15.30;99.90;;;;;;5067216;28;20028;-83
2021/07/31 02:58:23;;;;;;;10.60;5.85;;;15.30;99.90;;;;;;5069019;28;20059;-82
2021/07/31 03:00:49;;;;;;;11.13;5.68;;;15.30;99.90;;;;;;5065795;28;20040;-83
2021/07/31 03:03:14;;;;;;;14.35;6.10;;;15.30;99.90;;;;;;5069412;28;20086;-81
2021/07/31 03:05:40;;;;;;;14.98;6.97;;;15.30;99.90;;;;;;5067582;28;20041;-83
2021/07/31 03:08:06;;;;;;;12.93;6.05;;;15.30;99.90;;;;;;5067136;28;20080;-81
2021/07/31 03:10:32;;;;;;;11.57;6.20;;;15.30;99.90;;;;;;5068949;28;20056;-81
2021/07/31 03:12:58;;;;;;;14.80;7.15;;;15.30;99.90;;;;;;5069128;28;20036;-81
2021/07/31 03:15:24;;;;;;;12.88;5.90;;;15.30;99.90;;;;;;5067466;28;20437;-80
2021/07/31 03:17:49;;;;;;;12.95;6.22;;;15.30;99.90;;;;;;5070081;28;20052;-82
2021/07/31 03:20:15;;;;;;;13.02;5.90;;;15.30;99.90;;;;;;5067272;28;20033;-81
2021/07/31 03:22:41;;;;;;;13.98;6.25;;;15.30;99.90;;;;;;5068822;28;20587;-82
2021/07/31 03:25:07;;;;;;;12.93;6.10;;;15.30;99.90;;;;;;5067943;28;20108;-84
2021/07/31 03:27:33;;;;;;;12.65;6.55;;;15.30;99.90;;;;;;5067858;28;20036;-82
2021/07/31 03:29:58;;;;;;;12.65;6.40;;;15.30;99.90;;;;;;5066911;28;20058;-83
2021/07/31 03:32:24;;;;;;;13.98;6.82;;;15.30;99.90;;;;;;5066550;28;20044;-82
2021/07/31 03:34:49;;;;;;;13.20;6.75;;;15.30;99.90;;;;;;5068443;28;20466;-84
2021/07/31 03:37:15;;;;;;;13.00;6.93;;;15.40;99.90;;;;;;5067586;28;20052;-81
2021/07/31 03:39:41;;;;;;;12.05;6.18;;;15.40;99.90;;;;;;5067829;28;20493;-83
2021/07/31 03:42:06;;;;;;;14.63;6.40;;;15.40;99.90;;;;;;5065209;28;20536;-82
2021/07/31 03:44:32;;;;;;;10.25;6.10;;;15.40;99.90;;;;;;5069619;28;20152;-83
2021/07/31 03:46:58;;;;;;;12.77;6.57;;;15.40;99.90;;;;;;5066640;28;20048;-83
2021/07/31 03:49:24;;;;;;;12.38;6.60;;;15.30;99.90;;;;;;5069283;28;20672;-82
2021/07/31 03:51:55;;;;;;;11.73;6.72;;;15.30;99.90;;;;;;5067599;28;20025;-83
2021/07/31 03:54:21;;;;;;;16.65;6.35;;;15.40;99.90;;;;;;5067034;28;20045;-83
2021/07/31 03:56:47;;;;;;;11.00;6.10;;;15.40;99.90;;;;;;5067241;28;20044;-84
2021/07/31 03:59:12;;;;;;;11.27;6.80;;;15.40;99.90;;;;;;5069207;28;20051;-83
2021/07/31 04:01:38;;;;;;;10.07;6.10;;;15.40;99.90;;;;;;5066052;28;20040;-83
2021/07/31 04:04:06;;;;;;;9.57;6.18;;;15.40;99.90;;;;;;5067642;28;20416;-83
2021/07/31 04:06:32;;;;;;;11.70;6.00;;;15.40;99.90;;;;;;5066609;28;20032;-83
2021/07/31 04:08:58;;;;;;;14.85;6.57;;;15.40;99.90;;;;;;5067576;28;20062;-83
2021/07/31 04:11:25;;;;;;;13.77;7.25;;;15.40;99.90;;;;;;5067009;28;21798;-82
2021/07/31 04:13:52;;;;;;;11.73;6.78;;;15.40;99.90;;;;;;5066589;28;20111;-83
2021/07/31 04:16:21;;;;;;;14.90;6.68;;;15.40;99.90;;;;;;5062633;28;20078;-82
2021/07/31 04:18:47;;;;;;;13.15;6.18;;;15.40;99.90;;;;;;5067428;28;20036;-83
2021/07/31 04:21:13;;;;;;;13.55;6.43;;;15.40;99.90;;;;;;5062384;28;20051;-81
2021/07/31 04:23:39;;;;;;;11.07;6.00;;;15.40;99.90;;;;;;5064507;28;20040;-80
2021/07/31 04:26:15;;;;;;;12.52;5.93;;;15.40;99.90;;;;;;5068587;28;20159;-84
2021/07/31 04:28:42;;;;;;;11.80;5.60;;;15.40;99.90;;;;;;5063492;28;20497;-81
2021/07/31 04:31:13;;;;;;;12.07;5.38;;;15.40;99.90;;;;;;5068553;28;20071;-82
2021/07/31 04:33:39;;;;;;;12.77;5.75;;;15.40;99.90;;;;;;5067918;28;20491;-81
2021/07/31 04:36:07;;;;;;;11.82;5.53;;;15.40;99.90;;;;;;5065252;28;20063;-81
2021/07/31 04:38:33;;;;;;;12.23;5.90;;;15.40;99.90;;;;;;5068565;28;20045;-82
2021/07/31 04:41:04;;;;;;;13.15;5.65;;;15.60;99.90;;;;;;5064166;28;20045;-81
2021/07/31 04:43:31;;;;;;;11.95;6.03;;;15.40;99.90;;;;;;5067537;28;20386;-82
2021/07/31 04:45:57;;;;;;;14.15;5.65;;;15.40;99.90;;;;;;5066594;28;20093;-83
2021/07/31 04:48:23;;;;;;;9.60;5.43;;;15.50;99.90;;;;;;5065921;28;20040;-82
2021/07/31 04:51:00;;;;;;;14.52;5.63;;;15.50;99.90;;;;;;5066275;28;20040;-81
2021/07/31 04:53:26;;;;;;;14.38;5.28;;;15.50;99.90;;;;;;5066106;28;20044;-81
2021/07/31 04:55:53;;;;;;;11.15;5.18;;;15.50;99.90;;;;;;5067887;28;20058;-82
2021/07/31 04:58:18;;;;;;;16.38;5.72;;;15.50;99.90;;;;;;5066177;28;20120;-83
2021/07/31 05:00:46;;;;;;;13.80;5.50;;;15.60;99.90;;;;;;5064747;28;20116;-82
2021/07/31 05:03:12;;;;;;;15.65;5.65;;;15.60;99.90;;;;;;5066596;28;20409;-83
2021/07/31 05:05:38;;;;;;;14.80;6.15;;;15.50;99.90;;;;;;5064495;28;20529;-82
2021/07/31 05:08:04;;;;;;;14.35;5.32;;;15.60;99.90;;;;;;5067291;28;20033;-84
2021/07/31 05:10:30;;;;;;;11.40;4.55;;;15.60;99.90;;;;;;5066729;28;20045;-83
2021/07/31 05:12:56;;;;;;;11.80;4.30;;;15.60;99.90;;;;;;5063234;28;20041;-83
2021/07/31 05:15:21;;;;;;;12.38;4.38;;;15.60;99.90;;;;;;5062983;28;20113;-81
2021/07/31 05:17:47;;;;;;;16.33;4.57;;;15.70;99.90;;;;;;5063553;28;20044;-81
2021/07/31 05:20:13;;;;;;;12.85;4.20;;;15.70;99.90;;;;;;5062925;28;20046;-81
2021/07/31 05:22:39;;;;;;;13.45;3.47;;;15.80;99.90;;;;;;5066035;28;20041;-82
2021/07/31 05:25:05;;;;;;;10.95;3.80;;;16.10;99.90;;;;;;5067890;28;20504;-81
2021/07/31 05:27:30;;;;;;;11.32;3.00;;;16.30;99.90;;;;;;5068195;28;20036;-81
2021/07/31 05:29:56;;;;;;;11.38;3.92;;;16.40;99.90;;;;;;5068549;28;20044;-82
2021/07/31 05:32:22;;;;;;;10.88;3.53;;;16.30;99.90;;;;;;5068992;28;20040;-83
2021/07/31 05:34:48;;;;;;;16.05;4.75;;;16.30;99.90;;;;;;5071507;28;20044;-82
2021/07/31 05:37:13;;;;;;;15.43;4.00;;;16.20;99.90;;;;;;5070465;28;20041;-82
2021/07/31 05:39:39;;;;;;;12.00;2.72;;;16.20;99.90;;;;;;5067806;28;20040;-84
2021/07/31 05:42:05;;;;;;;14.20;3.40;;;16.20;99.90;;;;;;5063910;28;20111;-82
2021/07/31 05:44:37;;;;;;;12.35;3.20;;;16.20;99.90;;;;;;5067943;28;20013;-84
2021/07/31 05:47:03;;;;;;;17.65;4.05;;;16.20;99.90;;;;;;5069331;28;20078;-85
2021/07/31 05:49:31;;;;;;;12.50;3.28;;;16.20;99.90;;;;;;5063730;28;20048;-82
2021/07/31 05:51:57;;;;;;;14.38;3.63;;;16.50;99.90;;;;;;5067145;28;20055;-82
2021/07/31 05:54:23;;;;;;;16.30;3.00;;;16.60;99.90;;;;;;5071672;28;20047;-83
2021/07/31 05:56:49;;;;;;;10.00;3.00;;;16.60;99.90;;;;;;5076990;28;20033;-81
2021/07/31 05:59:18;;;;;;;9.05;2.88;;;16.60;99.90;;;;;;5066546;28;20561;-83
2021/07/31 06:01:44;;;;;;;12.20;3.28;;;16.70;99.90;;;;;;5066627;28;20052;-83
2021/07/31 06:04:09;;;;;;;15.98;3.30;;;16.80;99.90;;;;;;5067794;28;20032;-83
2021/07/31 06:06:35;;;;;;;8.52;2.95;;;16.80;99.90;;;;;;5065813;28;20108;-82
2021/07/31 06:09:01;;;;;;;9.57;2.97;;;16.80;99.90;;;;;;5066378;28;20043;-84
2021/07/31 06:11:26;;;;;;;12.50;3.35;;;16.80;99.90;;;;;;5067066;28;20043;-85
2021/07/31 06:13:52;;;;;;;14.45;4.22;;;16.80;99.90;;;;;;5067945;28;20037;-83
2021/07/31 06:16:18;;;;;;;13.55;3.10;;;16.80;99.90;;;;;;5065438;28;20048;-83
2021/07/31 06:18:44;;;;;;;7.45;2.90;;;16.80;99.90;;;;;;5067919;28;20048;-83
2021/07/31 06:21:17;;;;;;;11.15;4.03;;;16.80;99.90;;;;;;5065984;28;20037;-83
2021/07/31 06:23:43;;;;;;;14.10;3.50;;;16.80;99.90;;;;;;5062426;28;20045;-82
2021/07/31 06:26:09;;;;;;;10.15;3.25;;;16.70;99.90;;;;;;5061935;28;20041;-83
2021/07/31 06:28:35;;;;;;;10.40;3.10;;;16.70;99.90;;;;;;5067596;28;20075;-83
2021/07/31 06:31:02;;;;;;;13.63;3.60;;;16.70;99.90;;;;;;5059244;28;20080;-82
2021/07/31 06:33:27;;;;;;;14.73;4.32;;;16.70;99.90;;;;;;5063566;28;20149;-85
2021/07/31 06:35:53;;;;;;;16.42;3.60;;;16.70;99.90;;;;;;5066064;28;20161;-84
2021/07/31 06:38:18;;;;;;;15.38;3.80;;;16.70;99.90;;;;;;5065061;28;20496;-82
2021/07/31 06:40:44;;;;;;;12.27;3.38;;;16.60;99.90;;;;;;5063675;28;20058;-83
2021/07/31 06:43:10;;;;;;;12.60;3.83;;;16.60;99.90;;;;;;5067603;28;20082;-87
2021/07/31 06:45:35;;;;;;;19.58;4.30;;;16.60;99.90;;;;;;5067504;28;20040;-83
2021/07/31 06:48:01;;;;;;;16.70;3.75;;;16.60;99.90;;;;;;5067218;28;20075;-83
2021/07/31 06:50:27;;;;;;;16.23;3.45;;;16.60;99.90;;;;;;5066224;28;20033;-83
2021/07/31 06:52:52;;;;;;;18.15;3.78;;;16.60;99.90;;;;;;5065083;28;20451;-84
2021/07/31 06:55:18;;;;;;;12.00;2.70;;;16.60;99.90;;;;;;5065528;28;20556;-83
2021/07/31 06:57:44;;;;;;;15.38;3.97;;;16.60;99.90;;;;;;5066400;28;20116;-84
2021/07/31 07:00:10;;;;;;;17.23;3.63;;;16.70;99.90;;;;;;5065973;28;20044;-83
2021/07/31 07:02:36;;;;;;;13.68;3.50;;;16.60;99.90;;;;;;5067111;28;20036;-83
2021/07/31 07:05:02;;;;;;;17.98;3.45;;;16.60;99.90;;;;;;5065778;28;20115;-83
2021/07/31 07:07:28;;;;;;;14.90;4.18;;;16.60;99.90;;;;;;5065697;28;20102;-82
2021/07/31 07:09:53;;;;;;;15.57;3.55;;;16.60;99.90;;;;;;5065871;28;20040;-83
2021/07/31 07:12:19;;;;;;;21.98;3.67;;;16.40;99.90;;;;;;5066721;28;20063;-87
2021/07/31 07:14:45;;;;;;;17.27;4.25;;;16.50;99.90;;;;;;5066191;28;20086;-85
2021/07/31 07:17:11;;;;;;;13.93;3.40;;;16.50;99.90;;;;;;5066125;28;20036;-83
2021/07/31 07:19:37;;;;;;;15.40;4.22;;;16.50;99.90;;;;;;5066716;28;20039;-85
2021/07/31 07:22:02;;;;;;;21.20;4.65;;;16.50;99.90;;;;;;5066007;28;20474;-81
2021/07/31 07:24:28;;;;;;;13.55;3.20;;;16.50;99.90;;;;;;5064945;28;20565;-82
2021/07/31 07:26:54;;;;;;;15.18;3.42;;;16.50;99.90;;;;;;5065509;28;20670;-83
2021/07/31 07:29:20;;;;;;;15.27;3.80;;;16.50;99.90;;;;;;5065651;28;20082;-82
2021/07/31 07:31:45;;;;;;;17.10;4.40;;;16.50;99.90;;;;;;5064172;28;20505;-82
2021/07/31 07:34:11;;;;;;;15.18;3.70;;;16.50;99.90;;;;;;5065580;28;20504;-83
2021/07/31 07:36:36;;;;;;;17.13;3.92;;;16.50;99.90;;;;;;5065662;28;20040;-82
2021/07/31 07:39:02;;;;;;;16.67;3.97;;;16.50;99.90;;;;;;5065018;28;20043;-83
2021/07/31 07:41:28;;;;;;;14.48;3.35;;;16.60;99.90;;;;;;5063642;28;20056;-84
2021/07/31 07:43:54;;;;;;;15.57;3.78;;;16.70;99.90;;;;;;5064834;28;20393;-83
2021/07/31 07:46:20;;;;;;;18.13;3.97;;;16.70;99.90;;;;;;5065904;28;20049;-85
2021/07/31 07:48:46;;;;;;;12.52;3.38;;;16.80;99.90;;;;;;5066263;28;20154;-83
2021/07/31 07:51:12;;;;;;;15.38;3.70;;;16.90;99.90;;;;;;5065628;28;20486;-83
2021/07/31 07:53:38;;;;;;;14.38;2.88;;;17.20;99.90;;;;;;5065457;28;20337;-84
2021/07/31 07:56:04;;;;;;;19.00;4.55;;;17.40;99.90;;;;;;5064010;28;20119;-83
2021/07/31 07:58:29;;;;;;;14.55;4.00;;;17.50;99.90;;;;;;5063390;28;20032;-82
2021/07/31 08:00:55;;;;;;;8.50;2.65;;;17.70;99.90;;;;;;5064667;28;20035;-85
2021/07/31 08:03:21;;;;;;;14.68;2.53;;;17.90;99.90;;;;;;5064859;28;20039;-83
2021/07/31 08:05:47;;;;;;;12.98;2.67;;;18.00;99.90;;;;;;5065519;28;20044;-83
2021/07/31 08:08:13;;;;;;;10.02;2.83;;;18.10;99.90;;;;;;5064597;28;20067;-84
2021/07/31 08:10:39;;;;;;;16.48;3.55;;;18.10;99.90;;;;;;5065419;28;20482;-83
2021/07/31 08:13:04;;;;;;;10.60;2.78;;;18.10;99.90;;;;;;5064410;28;20041;-83
2021/07/31 08:15:31;;;;;;;11.18;2.67;;;18.00;99.90;;;;;;5061800;28;20140;-85
2021/07/31 08:17:57;;;;;;;10.40;3.05;;;17.90;99.90;;;;;;5061782;28;20044;-83
2021/07/31 08:20:23;;;;;;;13.20;3.25;;;17.80;99.90;;;;;;5061179;28;20102;-86
2021/07/31 08:22:49;;;;;;;17.23;4.70;;;17.70;99.90;;;;;;5060416;28;20036;-83
2021/07/31 08:25:15;;;;;;;14.48;3.67;;;17.70;99.90;;;;;;5061352;28;20055;-81
2021/07/31 08:27:40;;;;;;;12.50;3.03;;;17.70;99.90;;;;;;5066365;28;20037;-82
2021/07/31 08:30:07;;;;;;;12.70;2.75;;;17.70;99.90;;;;;;5061577;28;20559;-83
2021/07/31 08:32:33;;;;;;;13.50;4.38;;;17.60;99.90;;;;;;5059878;28;20111;-83
2021/07/31 08:35:02;;;;;;;13.75;2.80;;;17.50;99.90;;;;;;5067706;28;20111;-84
2021/07/31 08:37:28;;;;;;;14.20;3.22;;;17.40;99.90;;;;;;5068189;28;20134;-84
2021/07/31 08:39:54;;;;;;;12.93;3.58;;;17.20;99.90;;;;;;5064147;28;20167;-84
2021/07/31 08:42:19;;;;;;;12.63;3.00;;;17.10;99.90;;;;;;5068478;28;20036;-83
2021/07/31 08:44:45;;;;;;;10.35;3.45;;;17.10;99.90;;;;;;5066850;28;20094;-83
2021/07/31 08:47:13;;;;;;;12.18;2.75;;;17.10;99.90;;;;;;5068282;28;20037;-83
2021/07/31 08:49:43;;;;;;;9.52;3.25;;;17.00;99.90;;;;;;5066258;28;20064;-85
2021/07/31 08:52:08;;;;;;;9.13;2.72;;;17.10;99.90;;;;;;5067242;28;20044;-83
2021/07/31 08:54:39;;;;;;;9.75;3.60;;;17.30;99.90;;;;;;5068006;28;20051;-83
2021/07/31 08:57:06;;;;;;;10.13;2.70;;;17.50;99.90;;;;;;5067645;28;20033;-84
2021/07/31 08:59:32;;;;;;;6.30;2.15;;;17.60;99.90;;;;;;5065785;28;20040;-83
2021/07/31 09:01:58;;;;;;;7.85;2.42;;;17.80;99.90;;;;;;5070888;28;20052;-82
2021/07/31 09:04:24;;;;;;;6.10;1.85;;;18.00;99.90;;;;;;5073596;28;20432;-82
2021/07/31 09:06:50;;;;;;;6.63;1.92;;;18.20;99.90;;;;;;5074625;28;20032;-84
2021/07/31 09:09:27;;;;;;;8.75;2.88;;;18.50;99.90;;;;;;5073233;28;20043;-85
2021/07/31 09:11:59;;;;;;;10.75;2.22;;;18.70;99.90;;;;;;5072149;28;20064;-85
2021/07/31 09:14:25;;;;;;;7.63;1.90;;;18.90;99.90;;;;;;5073864;28;20047;-85
2021/07/31 09:16:52;;;;;;;8.27;3.13;;;19.10;99.90;;;;;;5073326;28;20048;-82
2021/07/31 09:19:18;;;;;;;12.75;2.35;;;19.40;99.90;;;;;;5073015;28;20052;-84
2021/07/31 09:21:45;;;;;;;6.03;1.88;;;19.80;99.90;;;;;;5073763;28;20036;-83
2021/07/31 09:24:18;;;;;;;8.85;2.05;;;19.90;99.90;;;;;;5071421;28;20108;-85
2021/07/31 09:26:48;;;;;;;13.32;2.53;;;19.80;99.90;;;;;;5073349;28;20121;-83
2021/07/31 09:29:16;;;;;;;6.47;1.83;;;19.70;99.90;;;;;;5072918;28;20064;-84
2021/07/31 09:31:45;;;;;;;6.75;2.10;;;19.70;99.90;;;;;;5071524;28;20111;-85
2021/07/31 09:34:11;;;;;;;9.38;1.90;;;19.60;99.90;;;;;;5073837;28;20043;-83
2021/07/31 09:36:39;;;;;;;10.00;2.50;;;19.50;99.90;;;;;;5072245;28;20068;-85
2021/07/31 09:39:07;;;;;;;7.65;2.38;;;19.30;99.90;;;;;;5073032;28;20056;-83
2021/07/31 09:41:38;;;;;;;12.77;2.50;;;19.20;99.90;;;;;;5072338;28;20036;-85
2021/07/31 09:44:08;;;;;;;7.22;1.95;;;19.10;99.90;;;;;;5074772;28;20128;-87
2021/07/31 09:46:38;;;;;;;9.52;2.38;;;19.20;99.90;;;;;;5071714;28;20147;-83
2021/07/31 09:49:05;;;;;;;10.25;2.13;;;19.50;99.90;;;;;;5074079;28;20094;-83
2021/07/31 09:51:38;;;;;;;8.18;2.28;;;19.80;99.90;;;;;;5073187;28;20167;-84
2021/07/31 09:54:07;;;;;;;7.50;1.90;;;20.20;99.90;;;;;;5072937;28;20048;-83
2021/07/31 09:56:38;;;;;;;8.25;2.20;;;20.40;99.90;;;;;;5074752;28;20079;-85
2021/07/31 09:59:05;;;;;;;8.75;1.75;;;20.50;99.90;;;;;;5072033;28;20044;-86
2021/07/31 10:01:40;;;;;;;5.18;1.23;;;20.80;99.90;;;;;;5071787;28;20045;-87
2021/07/31 10:04:06;;;;;;;5.20;1.90;;;21.00;99.90;;;;;;5074335;28;20064;-86
2021/07/31 10:06:33;;;;;;;7.22;2.13;;;21.20;99.90;;;;;;5075794;28;20036;-86
2021/07/31 10:09:08;;;;;;;3.50;1.40;;;21.40;99.90;;;;;;5072265;28;20439;-87
2021/07/31 10:11:36;;;;;;;4.32;1.20;;;21.40;99.90;;;;;;5065584;28;20397;-85
2021/07/31 10:14:04;;;;;;;7.25;1.98;;;21.50;99.90;;;;;;5070282;28;20734;-86
2021/07/31 10:16:31;;;;;;;4.53;1.40;;;21.70;99.90;;;;;;5065930;28;20390;-87
2021/07/31 10:19:17;;;;;;;7.22;2.45;;;21.90;99.90;;;;;;5067703;28;20465;-86
2021/07/31 10:21:46;;;;;;;6.28;1.73;;;21.90;99.90;;;;;;5068716;28;20041;-88
2021/07/31 10:24:13;;;;;;;8.65;2.13;;;22.10;99.90;;;;;;5071465;28;20043;-91
2021/07/31 10:26:38;;;;;;;6.57;1.55;;;22.20;99.90;;;;;;5065576;28;20052;-91
2021/07/31 10:29:43;;;;;;;9.05;2.30;;;22.10;99.90;;;;;;5073398;28;20165;-92
2021/07/31 10:32:21;;;;;;;5.78;2.08;;;22.10;99.90;;;;;;5063659;28;20087;-88
2021/07/31 10:35:01;;;;;;;5.28;1.42;;;22.30;99.90;;;;;;5072997;28;20041;-88
2021/07/31 10:37:29;;;;;;;4.07;1.27;;;22.30;99.90;;;;;;5065506;28;20495;-88
2021/07/31 10:40:03;;;;;;;6.28;1.55;;;22.20;99.90;;;;;;5071953;28;20036;-94
2021/07/31 10:42:47;;;;;;;7.00;1.77;;;22.30;99.90;;;;;;5069560;28;20041;-93
2021/07/31 10:45:17;;;;;;;8.35;2.35;;;22.30;99.90;;;;;;5068967;28;20041;-94
2021/07/31 10:47:44;;;;;;;9.55;2.53;;;22.00;99.90;;;;;;5074839;28;20190;-88
2021/07/31 10:50:22;;;;;;;5.95;2.20;;;22.00;99.90;;;;;;5066587;28;20079;-93
2021/07/31 10:52:53;;;;;;;5.57;1.95;;;22.20;99.90;;;;;;5061246;28;20097;-90
2021/07/31 10:55:22;;;;;;;9.38;2.50;;;22.40;99.90;;;;;;5074044;28;20049;-90
2021/07/31 10:57:53;;;;;;;8.35;2.20;;;22.30;99.90;;;;;;5066263;28;20037;-89
2021/07/31 11:00:23;;;;;;;7.38;2.40;;;22.30;99.90;;;;;;5068300;28;20075;-91
2021/07/31 11:02:49;;;;;;;7.78;2.47;;;22.20;99.90;;;;;;5067624;28;20045;-89
2021/07/31 11:05:15;;;;;;;7.72;1.92;;;22.30;99.90;;;;;;5067207;28;20040;-90
2021/07/31 11:08:10;;;;;;;6.97;2.00;;;22.30;99.90;;;;;;5068484;28;20036;-85
2021/07/31 11:10:43;;;;;;;9.52;3.10;;;22.20;99.90;;;;;;5050156;28;20122;-87
2021/07/31 11:13:38;;;;;;;7.03;2.03;;;21.70;99.90;;;;;;5063750;28;20040;-87
2021/07/31 11:16:26;;;;;;;8.13;2.35;;;21.30;99.90;;;;;;5071080;28;20036;-86
2021/07/31 11:18:54;;;;;;;;;;;20.90;99.90;;;;;;5066639;28;20498;-83
2021/07/31 11:21:22;;;;;;;8.40;2.88;;;20.70;99.90;;;;;;5068442;28;19920;-84
2021/07/31 11:23:53;;;;;;;10.30;3.28;;;20.70;99.90;;;;;;5069328;28;20093;-83
2021/07/31 11:26:41;;;;;;;9.50;2.63;;;20.90;99.90;;;;;;5070244;28;20068;-84
2021/07/31 11:29:26;;;;;;;9.65;2.90;;;21.10;99.90;;;;;;5066027;28;20048;-84
2021/07/31 11:32:13;;;;;;;7.65;2.33;;;21.40;99.90;;;;;;5067516;28;20089;-82
2021/07/31 11:34:40;;;;;;;6.68;2.42;;;21.40;99.90;;;;;;5069716;28;20474;-85
2021/07/31 11:37:09;;;;;;;7.10;2.00;;;21.50;99.90;;;;;;5064098;28;20111;-85
2021/07/31 11:39:35;;;;;;;8.85;2.13;;;21.30;99.90;;;;;;5066702;28;20139;-85
2021/07/31 11:42:01;;;;;;;4.75;1.60;;;21.00;99.90;;;;;;5069380;28;20107;-85
2021/07/31 11:44:29;;;;;;;4.32;1.48;;;20.60;99.90;;;;;;5069959;28;20444;-85
2021/07/31 11:46:55;;;;;;;6.45;1.60;;;20.30;99.90;;;;;;5068276;28;20401;-87
2021/07/31 11:49:24;;;;;;;3.95;1.50;;;20.10;99.90;;;;;;5067448;28;20037;-75
2021/07/31 11:51:52;;;;;;;3.92;1.98;;;19.90;99.90;;;;;;5065588;28;20490;-74
2021/07/31 11:54:19;;;;;;;5.15;1.70;;;20.00;99.90;;;;;;5068565;28;20067;-71
2021/07/31 11:56:48;;;;;;;5.32;1.77;;;20.30;99.90;;;;;;5067793;28;20032;-70
2021/07/31 11:59:27;;;;;;;2.97;1.55;;;20.60;99.90;;;;;;5068287;28;20040;-70
2021/07/31 12:01:55;;;;;;;7.90;2.83;;;21.00;99.90;;;;;;5063600;28;20036;-70
2021/07/31 12:04:52;;;;;;;6.10;1.98;;;21.30;99.90;;;;;;5067683;28;20045;-72
2021/07/31 12:07:24;;;;;;;8.98;2.45;;;21.60;99.90;;;;;;5065704;28;20525;-73
2021/07/31 12:10:05;;;;;;;6.22;2.60;;;21.70;99.90;;;;;;5066244;28;20028;-75
2021/07/31 12:12:38;;;;;;;3.42;1.13;;;21.60;99.90;;;;;;5065500;28;20041;-76
2021/07/31 12:15:14;;;;;;;10.55;2.08;;;21.30;99.90;;;;;;5068628;28;20039;-76
2021/07/31 12:18:05;;;;;;;4.18;1.42;;;20.90;99.90;;;;;;5068521;28;20039;-73
2021/07/31 12:20:37;;;;;;;4.28;1.25;;;20.50;99.90;;;;;;5067249;28;20040;-75
2021/07/31 12:23:08;;;;;;;5.68;1.13;;;20.20;99.90;;;;;;5066147;28;20540;-76
2021/07/31 12:25:36;;;;;;;4.00;1.50;;;20.00;99.90;;;;;;5068805;28;20090;-74
2021/07/31 12:28:10;;;;;;;5.13;1.23;;;20.00;99.90;;;;;;5067386;28;20066;-79
2021/07/31 12:30:36;;;;;;;6.25;1.10;;;19.90;99.90;;;;;;5068497;28;20510;-76
2021/07/31 12:33:07;;;;;;;4.00;1.27;;;19.90;99.90;;;;;;5067275;28;20036;-71
2021/07/31 12:35:43;;;;;;;3.92;1.23;;;19.80;99.90;;;;;;5067011;28;20075;-76
2021/07/31 12:38:24;;;;;;;4.55;1.85;;;19.80;99.90;;;;;;5067489;28;20032;-75
2021/07/31 12:40:58;;;;;;;5.72;1.70;;;20.00;99.90;;;;;;5067512;28;20093;-82
2021/07/31 12:43:25;;;;;;;3.72;1.38;;;20.30;99.90;;;;;;5067573;28;20063;-75